sensor_id;sensor_type;location;lat;lon;timestamp;P1;durP1;ratioP1;P2;durP2;ratioP2
37485;SDS011;23341;50.296;18.960;2022-08-19T00:04:45;11.02;;;10.13;;
37485;SDS011;23341;50.296;18.960;2022-08-19T00:09:51;12.13;;;11.02;;
37485;SDS011;23341;50.296;18.960;2022-08-19T00:14:58;12.02;;;10.30;;
37485;SDS011;23341;50.296;18.960;2022-08-19T00:20:01;11.13;;;10.13;;
37485;SDS011;23341;50.296;18.960;2022-08-19T00:25:07;12.80;;;10.70;;
37485;SDS011;23341;50.296;18.960;2022-08-19T00:30:11;11.68;;;10.52;;
37485;SDS011;23341;50.296;18.960;2022-08-19T00:35:15;14.10;;;11.38;;
37485;SDS011;23341;50.296;18.960;2022-08-19T00:40:20;12.68;;;11.38;;
37485;SDS011;23341;50.296;18.960;2022-08-19T00:45:26;13.45;;;10.75;;
37485;SDS011;23341;50.296;18.960;2022-08-19T00:50:38;14.43;;;10.88;;
37485;SDS011;23341;50.296;18.960;2022-08-19T00:55:55;13.23;;;11.88;;
37485;SDS011;23341;50.296;18.960;2022-08-19T01:01:01;12.25;;;11.00;;
37485;SDS011;23341;50.296;18.960;2022-08-19T01:06:04;13.10;;;11.90;;
37485;SDS011;23341;50.296;18.960;2022-08-19T01:11:11;13.38;;;12.07;;
37485;SDS011;23341;50.296;18.960;2022-08-19T01:16:15;13.07;;;11.95;;
37485;SDS011;23341;50.296;18.960;2022-08-19T01:21:24;13.35;;;11.95;;
37485;SDS011;23341;50.296;18.960;2022-08-19T01:31:43;12.90;;;11.70;;
37485;SDS011;23341;50.296;18.960;2022-08-19T01:36:46;13.52;;;12.23;;
37485;SDS011;23341;50.296;18.960;2022-08-19T01:41:52;31.05;;;12.95;;
37485;SDS011;23341;50.296;18.960;2022-08-19T01:46:56;14.43;;;12.93;;
37485;SDS011;23341;50.296;18.960;2022-08-19T01:52:00;17.85;;;13.38;;
37485;SDS011;23341;50.296;18.960;2022-08-19T01:57:07;15.75;;;14.25;;
37485;SDS011;23341;50.296;18.960;2022-08-19T02:02:13;16.92;;;13.02;;
37485;SDS011;23341;50.296;18.960;2022-08-19T02:07:18;15.35;;;13.73;;
37485;SDS011;23341;50.296;18.960;2022-08-19T02:12:24;13.80;;;12.18;;
37485;SDS011;23341;50.296;18.960;2022-08-19T02:17:27;15.93;;;14.27;;
37485;SDS011;23341;50.296;18.960;2022-08-19T02:22:31;16.48;;;13.60;;
37485;SDS011;23341;50.296;18.960;2022-08-19T02:27:36;15.48;;;13.85;;
37485;SDS011;23341;50.296;18.960;2022-08-19T02:32:41;16.98;;;14.20;;
37485;SDS011;23341;50.296;18.960;2022-08-19T02:37:45;18.00;;;14.32;;
37485;SDS011;23341;50.296;18.960;2022-08-19T02:43:08;16.20;;;14.52;;
37485;SDS011;23341;50.296;18.960;2022-08-19T02:48:12;14.48;;;12.88;;
37485;SDS011;23341;50.296;18.960;2022-08-19T02:53:23;15.07;;;13.35;;
37485;SDS011;23341;50.296;18.960;2022-08-19T02:58:30;14.65;;;12.60;;
37485;SDS011;23341;50.296;18.960;2022-08-19T03:03:34;14.45;;;12.95;;
37485;SDS011;23341;50.296;18.960;2022-08-19T03:08:40;16.95;;;14.57;;
37485;SDS011;23341;50.296;18.960;2022-08-19T03:13:46;15.60;;;13.38;;
37485;SDS011;23341;50.296;18.960;2022-08-19T03:18:52;18.20;;;13.35;;
37485;SDS011;23341;50.296;18.960;2022-08-19T03:23:57;15.93;;;13.63;;
37485;SDS011;23341;50.296;18.960;2022-08-19T03:29:03;14.43;;;12.93;;
37485;SDS011;23341;50.296;18.960;2022-08-19T03:34:11;20.02;;;13.65;;
37485;SDS011;23341;50.296;18.960;2022-08-19T03:39:16;15.00;;;13.32;;
37485;SDS011;23341;50.296;18.960;2022-08-19T03:44:21;16.15;;;14.45;;
37485;SDS011;23341;50.296;18.960;2022-08-19T03:49:25;15.25;;;13.65;;
37485;SDS011;23341;50.296;18.960;2022-08-19T03:54:30;15.07;;;13.27;;
37485;SDS011;23341;50.296;18.960;2022-08-19T03:59:36;15.25;;;13.82;;
37485;SDS011;23341;50.296;18.960;2022-08-19T04:04:42;14.90;;;13.48;;
37485;SDS011;23341;50.296;18.960;2022-08-19T04:09:46;15.40;;;13.60;;
37485;SDS011;23341;50.296;18.960;2022-08-19T04:14:51;15.90;;;14.30;;
37485;SDS011;23341;50.296;18.960;2022-08-19T04:19:54;16.45;;;14.75;;
37485;SDS011;23341;50.296;18.960;2022-08-19T04:24:58;16.02;;;13.07;;
37485;SDS011;23341;50.296;18.960;2022-08-19T04:30:04;17.50;;;13.02;;
37485;SDS011;23341;50.296;18.960;2022-08-19T04:35:08;14.48;;;13.07;;
37485;SDS011;23341;50.296;18.960;2022-08-19T04:40:19;15.70;;;12.98;;
37485;SDS011;23341;50.296;18.960;2022-08-19T04:45:41;15.80;;;11.45;;
37485;SDS011;23341;50.296;18.960;2022-08-19T04:50:45;15.38;;;12.88;;
37485;SDS011;23341;50.296;18.960;2022-08-19T04:55:50;12.05;;;10.85;;
37485;SDS011;23341;50.296;18.960;2022-08-19T05:00:55;13.50;;;11.57;;
37485;SDS011;23341;50.296;18.960;2022-08-19T05:06:03;13.05;;;11.88;;
37485;SDS011;23341;50.296;18.960;2022-08-19T05:11:10;12.02;;;10.80;;
37485;SDS011;23341;50.296;18.960;2022-08-19T05:16:18;13.10;;;11.68;;
37485;SDS011;23341;50.296;18.960;2022-08-19T05:21:23;12.80;;;11.45;;
37485;SDS011;23341;50.296;18.960;2022-08-19T05:26:44;14.25;;;11.75;;
